Hav Tind — OZ2071 — position and weather

sailwx.info

Track history (hours):
 
Tides and Currents Weather Stations Pressure Air Temp Water Temp Dewpoint Dewpoint Depression Visibility Wind Speed Wind Dir Waves Ship Positions

Hav Tind

Last reported at 2015-Feb-05 14:28 UTC. Time now 2015-Mar-02 15:07 UTC.
Position N 62°10' W 006°43'.
Warning: this ship's position is 25 days out of date.

Length 60 m; draft 4 m.

Type: Cargo ship. MMSI: 231565000.

Date/timePositionNaut miles runAvg speedWind from/ knotsBaromVisibWave heightAir tempDewpointWater temp
2015-Feb-05 14:28N 62°10' W 006°43'3 3.2
2015-Feb-05 13:32N 62°12' W 006°38'7 2.3
2015-Feb-05 10:28N 62°17' W 006°50'3 3.1
2015-Feb-05 09:30N 62°14' W 006°48'0 0.0
2015-Feb-05 08:30N 62°14' W 006°48'0 0.0
2015-Feb-05 07:33N 62°14' W 006°48'0 0.0
2015-Feb-05 06:33N 62°14' W 006°48'0 0.0
2015-Feb-05 05:33N 62°14' W 006°48'0 0.0
2015-Feb-05 04:33N 62°14' W 006°48'0 0.0
2015-Feb-05 03:33N 62°14' W 006°48'0 0.0
2015-Feb-05 02:33N 62°14' W 006°48'0 0.0
2015-Feb-05 01:33N 62°14' W 006°48'0 0.0
2015-Feb-05 00:33N 62°14' W 006°48'0 0.0
2015-Feb-04 23:33N 62°14' W 006°48'0 0.0
2015-Feb-04 22:33N 62°14' W 006°48'0 0.0
2015-Feb-04 21:33N 62°14' W 006°48'0 0.0
2015-Feb-04 20:33N 62°14' W 006°48'0 0.0
2015-Feb-04 19:33N 62°14' W 006°48'0 0.0
2015-Feb-04 18:33N 62°14' W 006°48'0 0.0
2015-Feb-04 17:33N 62°14' W 006°48'0 0.0
2015-Feb-04 16:33N 62°14' W 006°48'0 0.0
2015-Feb-04 15:33N 62°14' W 006°48'7 7.0
2015-Feb-04 14:33N 62°11' W 006°35'4 0.6
2015-Feb-04 08:10N 62°11' W 006°26'5 7.6
2015-Feb-04 07:31N 62°12' W 006°37'6 6.1
2015-Feb-04 06:33N 62°14' W 006°48'0 0.0
2015-Feb-04 05:33N 62°14' W 006°48'0 0.0
2015-Feb-04 04:27N 62°14' W 006°48'0 0.0
2015-Feb-04 03:33N 62°14' W 006°48'0 0.0
2015-Feb-04 02:33N 62°14' W 006°48'0 0.0
2015-Feb-04 01:27N 62°14' W 006°48'0 0.0
2015-Feb-04 00:33N 62°14' W 006°48'0 0.0
2015-Feb-03 23:33N 62°14' W 006°48'0 0.0
2015-Feb-03 22:30N 62°14' W 006°48'0 0.0
2015-Feb-03 21:30N 62°14' W 006°48'0 0.0
2015-Feb-03 20:33N 62°14' W 006°48'0 0.0
2015-Feb-03 19:33N 62°14' W 006°48'0 0.0
2015-Feb-03 18:33N 62°14' W 006°48'0 0.0
2015-Feb-03 17:33N 62°14' W 006°48'0 0.0
2015-Feb-03 16:30N 62°14' W 006°48'2 2.1
2015-Feb-03 15:34N 62°14' W 006°44'9 8.6
2015-Feb-03 14:33N 62°06' W 006°37'6 5.9
2015-Feb-03 13:33N 62°03' W 006°49'2 1.9
2015-Feb-03 12:33N 62°03' W 006°45'8 8.4
2015-Feb-03 11:33N 62°10' W 006°36'7 6.5
2015-Feb-03 10:29N 62°14' W 006°48'0 0.0
2015-Feb-03 09:32N 62°14' W 006°48'0 0.0
2015-Feb-03 08:32N 62°14' W 006°48'0 0.0
2015-Feb-03 07:32N 62°14' W 006°48'0 0.0
2015-Feb-03 06:32N 62°14' W 006°48'0 0.0
2015-Feb-03 05:32N 62°14' W 006°48'0 0.0
2015-Feb-03 04:32N 62°14' W 006°48'0 0.0
2015-Feb-03 03:32N 62°14' W 006°48'0 0.0
2015-Feb-03 02:32N 62°14' W 006°48'0 0.0
2015-Feb-03 01:29N 62°14' W 006°48'0 0.0
2015-Feb-03 00:32N 62°14' W 006°48'0 0.0
2015-Feb-02 23:32N 62°14' W 006°48'0 0.0
2015-Feb-02 22:32N 62°14' W 006°48'0 0.0
2015-Feb-02 21:32N 62°14' W 006°48'0 0.0
2015-Feb-02 20:32N 62°14' W 006°48'0 0.0
2015-Feb-02 19:32N 62°14' W 006°48'0 0.0
2015-Feb-02 18:32N 62°14' W 006°48'0 0.0
2015-Feb-02 17:32N 62°14' W 006°48'0 0.0
2015-Feb-02 16:32N 62°14' W 006°48'0 0.0
2015-Feb-02 15:29N 62°14' W 006°48'0 0.0
2015-Feb-02 14:32N 62°14' W 006°48'1 0.8
2015-Feb-02 13:32N 62°13' W 006°48'0 0.5
2015-Feb-02 12:33N 62°14' W 006°48'0 0.3
2015-Feb-02 11:33N 62°14' W 006°48'0 0.2
2015-Feb-02 10:33N 62°14' W 006°48'0 0.0
2015-Feb-02 09:33N 62°14' W 006°48'0 0.0
2015-Feb-02 08:33N 62°14' W 006°48'0 0.0
2015-Feb-02 07:33N 62°14' W 006°48'0 0.0
2015-Feb-02 06:33N 62°14' W 006°48'0 0.0
2015-Feb-02 05:33N 62°14' W 006°48'0 0.0
2015-Feb-02 04:15N 62°14' W 006°48'0 0.0
2015-Feb-02 03:30N 62°14' W 006°48'0 0.0
2015-Feb-02 02:33N 62°14' W 006°48'0 0.0
2015-Feb-02 01:33N 62°14' W 006°48'0 0.0
2015-Feb-02 00:33N 62°14' W 006°48'0 0.0
2015-Feb-01 23:33N 62°14' W 006°48'0 0.0
2015-Feb-01 22:33N 62°14' W 006°48'0 0.0
2015-Feb-01 21:30N 62°14' W 006°48'0 0.0
2015-Feb-01 20:33N 62°14' W 006°48'0 0.0
2015-Feb-01 19:33N 62°14' W 006°48'0 0.0
2015-Feb-01 18:30N 62°14' W 006°48'0 0.0
2015-Feb-01 17:30N 62°14' W 006°48'0 0.0
2015-Feb-01 16:30N 62°14' W 006°48'0 0.2
2015-Feb-01 15:31N 62°14' W 006°48'0 0.0
2015-Feb-01 14:31N 62°14' W 006°48'0 0.0
2015-Feb-01 13:28N 62°14' W 006°48'0 0.0
2015-Feb-01 12:31N 62°14' W 006°48'0 0.0
2015-Feb-01 11:31N 62°14' W 006°48'0 0.0
2015-Feb-01 10:28N 62°14' W 006°48'0 0.0
2015-Feb-01 09:31N 62°14' W 006°48'0 0.0
2015-Feb-01 08:31N 62°14' W 006°48'0 0.0
2015-Feb-01 07:25N 62°14' W 006°48'0 0.0
2015-Feb-01 06:31N 62°14' W 006°48'0 0.0
2015-Feb-01 05:31N 62°14' W 006°48'0 0.0
2015-Feb-01 04:28N 62°14' W 006°48'0 0.0
2015-Feb-01 03:28N 62°14' W 006°48'0 0.0
2015-Feb-01 02:31N 62°14' W 006°48'0 0.0
2015-Feb-01 01:28N 62°14' W 006°48'0 0.0
2015-Feb-01 00:28N 62°14' W 006°48'0 0.0
2015-Jan-31 23:22N 62°14' W 006°48'0 0.0
2015-Jan-31 22:28N 62°14' W 006°48'0 0.0
2015-Jan-31 21:31N 62°14' W 006°48'0 0.0
2015-Jan-31 20:31N 62°14' W 006°48'0 0.0
2015-Jan-31 19:31N 62°14' W 006°48'0 0.0
2015-Jan-31 18:31N 62°14' W 006°48'0 0.0
2015-Jan-31 17:31N 62°14' W 006°48'0 0.0
2015-Jan-31 16:31N 62°14' W 006°48'0 0.0
2015-Jan-31 15:28N 62°14' W 006°48'0 0.0
2015-Jan-31 14:28N 62°14' W 006°48'0 0.0
2015-Jan-31 13:28N 62°14' W 006°48'0 0.0
2015-Jan-31 12:31N 62°14' W 006°48'0 0.0
2015-Jan-31 11:28N 62°14' W 006°48'0 0.0
2015-Jan-31 10:31N 62°14' W 006°48'0 0.0
2015-Jan-31 09:28N 62°14' W 006°48'0 0.0
2015-Jan-31 08:28N 62°14' W 006°48'0 0.0
2015-Jan-31 07:31N 62°14' W 006°48'0 0.0
2015-Jan-31 06:31N 62°14' W 006°48'0 0.0
2015-Jan-31 05:31N 62°14' W 006°48'0 0.0
2015-Jan-31 04:28N 62°14' W 006°48'0 0.0
2015-Jan-31 03:28N 62°14' W 006°48'0 0.0
2015-Jan-31 02:28N 62°14' W 006°48'0 0.0
2015-Jan-31 01:19N 62°14' W 006°48'0 0.0
2015-Jan-31 00:28N 62°14' W 006°48'0 0.0
2015-Jan-30 23:31N 62°14' W 006°48'0 0.0
2015-Jan-30 22:28N 62°14' W 006°48'0 0.0
2015-Jan-30 21:28N 62°14' W 006°48'0 0.0
2015-Jan-30 20:31N 62°14' W 006°48'0 0.0
2015-Jan-30 19:31N 62°14' W 006°48'0 0.0
2015-Jan-30 18:31N 62°14' W 006°48'0 0.0
2015-Jan-30 17:31N 62°14' W 006°48'0 0.0
2015-Jan-30 16:31N 62°14' W 006°48'0 0.0
2015-Jan-30 15:28N 62°14' W 006°48'0 0.0
2015-Jan-30 14:19N 62°14' W 006°48'0 0.0
2015-Jan-30 13:28N 62°14' W 006°48'0 0.0
2015-Jan-30 12:28N 62°14' W 006°48'0 0.0
2015-Jan-30 11:31N 62°14' W 006°48'0 0.0
2015-Jan-30 10:31N 62°14' W 006°48'0 0.0
2015-Jan-30 09:28N 62°14' W 006°48'0 0.0
2015-Jan-30 08:31N 62°14' W 006°48'0 0.0
2015-Jan-30 07:28N 62°14' W 006°48'0 0.0
2015-Jan-30 06:22N 62°14' W 006°48'0 0.0
2015-Jan-30 05:25N 62°14' W 006°48'0 0.0
2015-Jan-30 04:31N 62°14' W 006°48'0 0.0
2015-Jan-30 03:31N 62°14' W 006°48'0 0.0
2015-Jan-30 02:31N 62°14' W 006°48'0 0.0
2015-Jan-30 01:31N 62°14' W 006°48'0 0.0
2015-Jan-30 00:31N 62°14' W 006°48'0 0.0
2015-Jan-29 23:31N 62°14' W 006°48'0 0.0
2015-Jan-29 22:31N 62°14' W 006°48'0 0.0
2015-Jan-29 21:31N 62°14' W 006°48'0 0.0
2015-Jan-29 20:31N 62°14' W 006°48'0 0.0
2015-Jan-29 19:28N 62°14' W 006°48'0 0.0
2015-Jan-29 18:31N 62°14' W 006°48'0 0.0
2015-Jan-29 17:28N 62°14' W 006°48'0 0.0
2015-Jan-29 16:19N 62°14' W 006°48'0 0.0
2015-Jan-29 15:31N 62°14' W 006°48'0 0.0
2015-Jan-29 14:31N 62°14' W 006°48'0 0.0
2015-Jan-29 13:31N 62°14' W 006°48'0 0.0
2015-Jan-29 12:31N 62°14' W 006°48'6 5.9
2015-Jan-29 11:33N 62°10' W 006°39'2 1.5
2015-Jan-29 10:33N 62°10' W 006°43'4 4.3
2015-Jan-29 09:34N 62°14' W 006°48'0 0.2
2015-Jan-29 08:32N 62°14' W 006°48'0 0.0
2015-Jan-29 07:32N 62°14' W 006°48'0 0.0
2015-Jan-29 06:29N 62°14' W 006°48'0 0.0
2015-Jan-29 05:32N 62°14' W 006°48'0 0.0
2015-Jan-29 04:32N 62°14' W 006°48'0 0.0
2015-Jan-29 03:32N 62°14' W 006°48'0 0.0
2015-Jan-29 02:32N 62°14' W 006°48'0 0.0
2015-Jan-29 01:32N 62°14' W 006°48'0 0.0
2015-Jan-29 00:32N 62°14' W 006°48'0 0.0
2015-Jan-28 23:32N 62°14' W 006°48'0 0.0
2015-Jan-28 22:32N 62°14' W 006°48'0 0.0
2015-Jan-28 21:32N 62°14' W 006°48'1 0.9
2015-Jan-28 20:33N 62°14' W 006°46'9 1.4
2015-Jan-28 14:26N 62°23' W 006°49'7 2.5
2015-Jan-28 11:33N 62°16' W 006°46'2 1.8
2015-Jan-28 10:32N 62°14' W 006°48'0 0.0
2015-Jan-28 09:32N 62°14' W 006°48'0 0.3
2015-Jan-28 08:32N 62°14' W 006°48'0 0.0
2015-Jan-28 07:32N 62°14' W 006°48'0 0.0
2015-Jan-28 06:32N 62°14' W 006°48'0 0.0
2015-Jan-28 05:29N 62°14' W 006°48'0 0.0
2015-Jan-28 04:26N 62°14' W 006°48'0 0.0
2015-Jan-28 03:29N 62°14' W 006°48'0 0.0
2015-Jan-28 02:32N 62°14' W 006°48'0 0.0
2015-Jan-28 01:32N 62°14' W 006°48'0 0.0
2015-Jan-28 00:32N 62°14' W 006°48'0 0.0
2015-Jan-27 23:32N 62°14' W 006°48'0 0.0
2015-Jan-27 22:32N 62°14' W 006°48'0 0.0
2015-Jan-27 21:32N 62°14' W 006°48'0 0.0
2015-Jan-27 20:32N 62°14' W 006°48'0 0.0
2015-Jan-27 19:32N 62°14' W 006°48'0 0.0
2015-Jan-27 18:32N 62°14' W 006°48'4 4.1
2015-Jan-27 17:33N 62°13' W 006°40'7 6.8
2015-Jan-27 16:33N 62°11' W 006°27'3 0.4
2015-Jan-27 09:33N 62°10' W 006°33'7 7.3
2015-Jan-27 08:33N 62°14' W 006°47'1 1.0
2015-Jan-27 07:32N 62°14' W 006°48'0 0.0
2015-Jan-27 06:32N 62°14' W 006°48'0 0.0
2015-Jan-27 05:32N 62°14' W 006°48'0 0.0
2015-Jan-27 04:32N 62°14' W 006°48'0 0.0
2015-Jan-27 03:32N 62°14' W 006°48'0 0.0
2015-Jan-27 02:29N 62°14' W 006°48'0 0.0
2015-Jan-27 01:32N 62°14' W 006°48'0 0.0
2015-Jan-27 00:32N 62°14' W 006°48'0 0.0
2015-Jan-26 23:26N 62°14' W 006°48'0 0.0
2015-Jan-26 22:32N 62°14' W 006°48'0 0.0
2015-Jan-26 21:32N 62°14' W 006°48'0 0.0
2015-Jan-26 20:32N 62°14' W 006°48'0 0.0
2015-Jan-26 19:32N 62°14' W 006°48'0 0.0
2015-Jan-26 18:32N 62°14' W 006°48'0 0.0
2015-Jan-26 17:32N 62°14' W 006°48'0 0.0
2015-Jan-26 16:32N 62°14' W 006°48'0 0.0
2015-Jan-26 15:32N 62°14' W 006°48'0 0.0
2015-Jan-26 14:32N 62°14' W 006°48'  
Track history (hours):
 
Tides and Currents Weather Stations Pressure Air Temp Water Temp Dewpoint Dewpoint Depression Visibility Wind Speed Wind Dir Waves Ship Positions

Hav Tind

Last reported at 2015-Feb-05 14:28 UTC. Time now 2015-Mar-02 15:07 UTC.
Position N 62°10' W 006°43'.
Warning: this ship's position is 25 days out of date.

Length 60 m; draft 4 m.

Type: Cargo ship. MMSI: 231565000.

Date/timePositionNaut miles runAvg speedWind from/ knotsBaromVisibWave heightAir tempDewpointWater temp
2015-Feb-05 14:28N 62°10' W 006°43'3 3.2
2015-Feb-05 13:32N 62°12' W 006°38'7 2.3
2015-Feb-05 10:28N 62°17' W 006°50'3 3.1
2015-Feb-05 09:30N 62°14' W 006°48'0 0.0
2015-Feb-05 08:30N 62°14' W 006°48'0 0.0
2015-Feb-05 07:33N 62°14' W 006°48'0 0.0
2015-Feb-05 06:33N 62°14' W 006°48'0 0.0
2015-Feb-05 05:33N 62°14' W 006°48'0 0.0
2015-Feb-05 04:33N 62°14' W 006°48'0 0.0
2015-Feb-05 03:33N 62°14' W 006°48'0 0.0
2015-Feb-05 02:33N 62°14' W 006°48'0 0.0
2015-Feb-05 01:33N 62°14' W 006°48'0 0.0
2015-Feb-05 00:33N 62°14' W 006°48'0 0.0
2015-Feb-04 23:33N 62°14' W 006°48'0 0.0
2015-Feb-04 22:33N 62°14' W 006°48'0 0.0
2015-Feb-04 21:33N 62°14' W 006°48'0 0.0
2015-Feb-04 20:33N 62°14' W 006°48'0 0.0
2015-Feb-04 19:33N 62°14' W 006°48'0 0.0
2015-Feb-04 18:33N 62°14' W 006°48'0 0.0
2015-Feb-04 17:33N 62°14' W 006°48'0 0.0
2015-Feb-04 16:33N 62°14' W 006°48'0 0.0
2015-Feb-04 15:33N 62°14' W 006°48'7 7.0
2015-Feb-04 14:33N 62°11' W 006°35'4 0.6
2015-Feb-04 08:10N 62°11' W 006°26'5 7.6
2015-Feb-04 07:31N 62°12' W 006°37'6 6.1
2015-Feb-04 06:33N 62°14' W 006°48'0 0.0
2015-Feb-04 05:33N 62°14' W 006°48'0 0.0
2015-Feb-04 04:27N 62°14' W 006°48'0 0.0
2015-Feb-04 03:33N 62°14' W 006°48'0 0.0
2015-Feb-04 02:33N 62°14' W 006°48'0 0.0
2015-Feb-04 01:27N 62°14' W 006°48'0 0.0
2015-Feb-04 00:33N 62°14' W 006°48'0 0.0
2015-Feb-03 23:33N 62°14' W 006°48'0 0.0
2015-Feb-03 22:30N 62°14' W 006°48'0 0.0
2015-Feb-03 21:30N 62°14' W 006°48'0 0.0
2015-Feb-03 20:33N 62°14' W 006°48'0 0.0
2015-Feb-03 19:33N 62°14' W 006°48'0 0.0
2015-Feb-03 18:33N 62°14' W 006°48'0 0.0
2015-Feb-03 17:33N 62°14' W 006°48'0 0.0
2015-Feb-03 16:30N 62°14' W 006°48'2 2.1
2015-Feb-03 15:34N 62°14' W 006°44'9 8.6
2015-Feb-03 14:33N 62°06' W 006°37'6 5.9
2015-Feb-03 13:33N 62°03' W 006°49'2 1.9
2015-Feb-03 12:33N 62°03' W 006°45'8 8.4
2015-Feb-03 11:33N 62°10' W 006°36'7 6.5
2015-Feb-03 10:29N 62°14' W 006°48'0 0.0
2015-Feb-03 09:32N 62°14' W 006°48'0 0.0
2015-Feb-03 08:32N 62°14' W 006°48'0 0.0
2015-Feb-03 07:32N 62°14' W 006°48'0 0.0
2015-Feb-03 06:32N 62°14' W 006°48'0 0.0
2015-Feb-03 05:32N 62°14' W 006°48'0 0.0
2015-Feb-03 04:32N 62°14' W 006°48'0 0.0
2015-Feb-03 03:32N 62°14' W 006°48'0 0.0
2015-Feb-03 02:32N 62°14' W 006°48'0 0.0
2015-Feb-03 01:29N 62°14' W 006°48'0 0.0
2015-Feb-03 00:32N 62°14' W 006°48'0 0.0
2015-Feb-02 23:32N 62°14' W 006°48'0 0.0
2015-Feb-02 22:32N 62°14' W 006°48'0 0.0
2015-Feb-02 21:32N 62°14' W 006°48'0 0.0
2015-Feb-02 20:32N 62°14' W 006°48'0 0.0
2015-Feb-02 19:32N 62°14' W 006°48'0 0.0
2015-Feb-02 18:32N 62°14' W 006°48'0 0.0
2015-Feb-02 17:32N 62°14' W 006°48'0 0.0
2015-Feb-02 16:32N 62°14' W 006°48'0 0.0
2015-Feb-02 15:29N 62°14' W 006°48'0 0.0
2015-Feb-02 14:32N 62°14' W 006°48'1 0.8
2015-Feb-02 13:32N 62°13' W 006°48'0 0.5
2015-Feb-02 12:33N 62°14' W 006°48'0 0.3
2015-Feb-02 11:33N 62°14' W 006°48'0 0.2
2015-Feb-02 10:33N 62°14' W 006°48'0 0.0
2015-Feb-02 09:33N 62°14' W 006°48'0 0.0
2015-Feb-02 08:33N 62°14' W 006°48'0 0.0
2015-Feb-02 07:33N 62°14' W 006°48'0 0.0
2015-Feb-02 06:33N 62°14' W 006°48'0 0.0
2015-Feb-02 05:33N 62°14' W 006°48'0 0.0
2015-Feb-02 04:15N 62°14' W 006°48'0 0.0
2015-Feb-02 03:30N 62°14' W 006°48'0 0.0
2015-Feb-02 02:33N 62°14' W 006°48'0 0.0
2015-Feb-02 01:33N 62°14' W 006°48'0 0.0
2015-Feb-02 00:33N 62°14' W 006°48'0 0.0
2015-Feb-01 23:33N 62°14' W 006°48'0 0.0
2015-Feb-01 22:33N 62°14' W 006°48'0 0.0
2015-Feb-01 21:30N 62°14' W 006°48'0 0.0
2015-Feb-01 20:33N 62°14' W 006°48'0 0.0
2015-Feb-01 19:33N 62°14' W 006°48'0 0.0
2015-Feb-01 18:30N 62°14' W 006°48'0 0.0
2015-Feb-01 17:30N 62°14' W 006°48'0 0.0
2015-Feb-01 16:30N 62°14' W 006°48'0 0.2
2015-Feb-01 15:31N 62°14' W 006°48'0 0.0
2015-Feb-01 14:31N 62°14' W 006°48'0 0.0
2015-Feb-01 13:28N 62°14' W 006°48'0 0.0
2015-Feb-01 12:31N 62°14' W 006°48'0 0.0
2015-Feb-01 11:31N 62°14' W 006°48'0 0.0
2015-Feb-01 10:28N 62°14' W 006°48'0 0.0
2015-Feb-01 09:31N 62°14' W 006°48'0 0.0
2015-Feb-01 08:31N 62°14' W 006°48'0 0.0
2015-Feb-01 07:25N 62°14' W 006°48'0 0.0
2015-Feb-01 06:31N 62°14' W 006°48'0 0.0
2015-Feb-01 05:31N 62°14' W 006°48'0 0.0
2015-Feb-01 04:28N 62°14' W 006°48'0 0.0
2015-Feb-01 03:28N 62°14' W 006°48'0 0.0
2015-Feb-01 02:31N 62°14' W 006°48'0 0.0
2015-Feb-01 01:28N 62°14' W 006°48'0 0.0
2015-Feb-01 00:28N 62°14' W 006°48'0 0.0
2015-Jan-31 23:22N 62°14' W 006°48'0 0.0
2015-Jan-31 22:28N 62°14' W 006°48'0 0.0
2015-Jan-31 21:31N 62°14' W 006°48'0 0.0
2015-Jan-31 20:31N 62°14' W 006°48'0 0.0
2015-Jan-31 19:31N 62°14' W 006°48'0 0.0
2015-Jan-31 18:31N 62°14' W 006°48'0 0.0
2015-Jan-31 17:31N 62°14' W 006°48'0 0.0
2015-Jan-31 16:31N 62°14' W 006°48'0 0.0
2015-Jan-31 15:28N 62°14' W 006°48'0 0.0
2015-Jan-31 14:28N 62°14' W 006°48'0 0.0
2015-Jan-31 13:28N 62°14' W 006°48'0 0.0
2015-Jan-31 12:31N 62°14' W 006°48'0 0.0
2015-Jan-31 11:28N 62°14' W 006°48'0 0.0
2015-Jan-31 10:31N 62°14' W 006°48'0 0.0
2015-Jan-31 09:28N 62°14' W 006°48'0 0.0
2015-Jan-31 08:28N 62°14' W 006°48'0 0.0
2015-Jan-31 07:31N 62°14' W 006°48'0 0.0
2015-Jan-31 06:31N 62°14' W 006°48'0 0.0
2015-Jan-31 05:31N 62°14' W 006°48'0 0.0
2015-Jan-31 04:28N 62°14' W 006°48'0 0.0
2015-Jan-31 03:28N 62°14' W 006°48'0 0.0
2015-Jan-31 02:28N 62°14' W 006°48'0 0.0
2015-Jan-31 01:19N 62°14' W 006°48'0 0.0
2015-Jan-31 00:28N 62°14' W 006°48'0 0.0
2015-Jan-30 23:31N 62°14' W 006°48'0 0.0
2015-Jan-30 22:28N 62°14' W 006°48'0 0.0
2015-Jan-30 21:28N 62°14' W 006°48'0 0.0
2015-Jan-30 20:31N 62°14' W 006°48'0 0.0
2015-Jan-30 19:31N 62°14' W 006°48'0 0.0
2015-Jan-30 18:31N 62°14' W 006°48'0 0.0
2015-Jan-30 17:31N 62°14' W 006°48'0 0.0
2015-Jan-30 16:31N 62°14' W 006°48'0 0.0
2015-Jan-30 15:28N 62°14' W 006°48'0 0.0
2015-Jan-30 14:19N 62°14' W 006°48'0 0.0
2015-Jan-30 13:28N 62°14' W 006°48'0 0.0
2015-Jan-30 12:28N 62°14' W 006°48'0 0.0
2015-Jan-30 11:31N 62°14' W 006°48'0 0.0
2015-Jan-30 10:31N 62°14' W 006°48'0 0.0
2015-Jan-30 09:28N 62°14' W 006°48'0 0.0
2015-Jan-30 08:31N 62°14' W 006°48'0 0.0
2015-Jan-30 07:28N 62°14' W 006°48'0 0.0
2015-Jan-30 06:22N 62°14' W 006°48'0 0.0
2015-Jan-30 05:25N 62°14' W 006°48'0 0.0
2015-Jan-30 04:31N 62°14' W 006°48'0 0.0
2015-Jan-30 03:31N 62°14' W 006°48'0 0.0
2015-Jan-30 02:31N 62°14' W 006°48'0 0.0
2015-Jan-30 01:31N 62°14' W 006°48'0 0.0
2015-Jan-30 00:31N 62°14' W 006°48'0 0.0
2015-Jan-29 23:31N 62°14' W 006°48'0 0.0
2015-Jan-29 22:31N 62°14' W 006°48'0 0.0
2015-Jan-29 21:31N 62°14' W 006°48'0 0.0
2015-Jan-29 20:31N 62°14' W 006°48'0 0.0
2015-Jan-29 19:28N 62°14' W 006°48'0 0.0
2015-Jan-29 18:31N 62°14' W 006°48'0 0.0
2015-Jan-29 17:28N 62°14' W 006°48'0 0.0
2015-Jan-29 16:19N 62°14' W 006°48'0 0.0
2015-Jan-29 15:31N 62°14' W 006°48'0 0.0
2015-Jan-29 14:31N 62°14' W 006°48'0 0.0
2015-Jan-29 13:31N 62°14' W 006°48'0 0.0
2015-Jan-29 12:31N 62°14' W 006°48'6 5.9
2015-Jan-29 11:33N 62°10' W 006°39'2 1.5
2015-Jan-29 10:33N 62°10' W 006°43'4 4.3
2015-Jan-29 09:34N 62°14' W 006°48'0 0.2
2015-Jan-29 08:32N 62°14' W 006°48'0 0.0
2015-Jan-29 07:32N 62°14' W 006°48'0 0.0
2015-Jan-29 06:29N 62°14' W 006°48'0 0.0
2015-Jan-29 05:32N 62°14' W 006°48'0 0.0
2015-Jan-29 04:32N 62°14' W 006°48'0 0.0
2015-Jan-29 03:32N 62°14' W 006°48'0 0.0
2015-Jan-29 02:32N 62°14' W 006°48'0 0.0
2015-Jan-29 01:32N 62°14' W 006°48'0 0.0
2015-Jan-29 00:32N 62°14' W 006°48'0 0.0
2015-Jan-28 23:32N 62°14' W 006°48'0 0.0
2015-Jan-28 22:32N 62°14' W 006°48'0 0.0
2015-Jan-28 21:32N 62°14' W 006°48'1 0.9
2015-Jan-28 20:33N 62°14' W 006°46'9 1.4
2015-Jan-28 14:26N 62°23' W 006°49'7 2.5
2015-Jan-28 11:33N 62°16' W 006°46'2 1.8
2015-Jan-28 10:32N 62°14' W 006°48'0 0.0
2015-Jan-28 09:32N 62°14' W 006°48'0 0.3
2015-Jan-28 08:32N 62°14' W 006°48'0 0.0
2015-Jan-28 07:32N 62°14' W 006°48'0 0.0
2015-Jan-28 06:32N 62°14' W 006°48'0 0.0
2015-Jan-28 05:29N 62°14' W 006°48'0 0.0
2015-Jan-28 04:26N 62°14' W 006°48'0 0.0
2015-Jan-28 03:29N 62°14' W 006°48'0 0.0
2015-Jan-28 02:32N 62°14' W 006°48'0 0.0
2015-Jan-28 01:32N 62°14' W 006°48'0 0.0
2015-Jan-28 00:32N 62°14' W 006°48'0 0.0
2015-Jan-27 23:32N 62°14' W 006°48'0 0.0
2015-Jan-27 22:32N 62°14' W 006°48'0 0.0
2015-Jan-27 21:32N 62°14' W 006°48'0 0.0
2015-Jan-27 20:32N 62°14' W 006°48'0 0.0
2015-Jan-27 19:32N 62°14' W 006°48'0 0.0
2015-Jan-27 18:32N 62°14' W 006°48'4 4.1
2015-Jan-27 17:33N 62°13' W 006°40'7 6.8
2015-Jan-27 16:33N 62°11' W 006°27'3 0.4
2015-Jan-27 09:33N 62°10' W 006°33'7 7.3
2015-Jan-27 08:33N 62°14' W 006°47'1 1.0
2015-Jan-27 07:32N 62°14' W 006°48'0 0.0
2015-Jan-27 06:32N 62°14' W 006°48'0 0.0
2015-Jan-27 05:32N 62°14' W 006°48'0 0.0
2015-Jan-27 04:32N 62°14' W 006°48'0 0.0
2015-Jan-27 03:32N 62°14' W 006°48'0 0.0
2015-Jan-27 02:29N 62°14' W 006°48'0 0.0
2015-Jan-27 01:32N 62°14' W 006°48'0 0.0
2015-Jan-27 00:32N 62°14' W 006°48'0 0.0
2015-Jan-26 23:26N 62°14' W 006°48'0 0.0
2015-Jan-26 22:32N 62°14' W 006°48'0 0.0
2015-Jan-26 21:32N 62°14' W 006°48'0 0.0
2015-Jan-26 20:32N 62°14' W 006°48'0 0.0
2015-Jan-26 19:32N 62°14' W 006°48'0 0.0
2015-Jan-26 18:32N 62°14' W 006°48'0 0.0
2015-Jan-26 17:32N 62°14' W 006°48'0 0.0
2015-Jan-26 16:32N 62°14' W 006°48'0 0.0
2015-Jan-26 15:32N 62°14' W 006°48'0 0.0
2015-Jan-26 14:32N 62°14' W 006°48'  

Dump ship's entire track history